createdAt,value
2023-03-26T00:01:02.029Z,7.20
2023-03-26T00:03:29.945Z,7.17
2023-03-26T00:06:04.009Z,7.16
2023-03-26T00:08:30.890Z,7.16
2023-03-26T00:10:58.053Z,7.16
2023-03-26T00:13:25.299Z,7.15
2023-03-26T00:15:53.090Z,7.14
2023-03-26T00:18:22.205Z,7.11
2023-03-26T00:20:48.616Z,7.12
2023-03-26T00:23:15.003Z,7.09
2023-03-26T00:25:43.292Z,7.07
2023-03-26T00:28:09.996Z,7.05
2023-03-26T00:30:36.445Z,7.04
2023-03-26T00:33:03.421Z,7.03
2023-03-26T00:35:30.276Z,7.00
2023-03-26T00:37:58.310Z,6.98
2023-03-26T00:40:25.178Z,7.00
2023-03-26T00:42:51.766Z,6.98
2023-03-26T00:45:21.247Z,6.94
2023-03-26T00:47:47.973Z,6.89
2023-03-26T00:50:17.614Z,6.85
2023-03-26T00:52:46.095Z,6.82
2023-03-26T00:55:13.197Z,6.80
2023-03-26T00:57:40.497Z,6.78
2023-03-26T01:00:11.067Z,6.79
2023-03-26T01:02:38.064Z,6.83
2023-03-26T01:05:36.393Z,6.86
2023-03-26T01:08:30.619Z,6.86
2023-03-26T01:11:03.095Z,6.88
2023-03-26T01:13:33.532Z,6.89
2023-03-26T01:16:01.986Z,6.88
2023-03-26T01:18:33.944Z,6.88
2023-03-26T01:21:05.436Z,6.84
2023-03-26T01:23:41.701Z,6.82
2023-03-26T01:26:18.676Z,6.83
2023-03-26T01:28:46.793Z,6.86
2023-03-26T01:31:30.126Z,6.85
2023-03-26T01:34:30.595Z,6.87
2023-03-26T01:37:08.865Z,6.90
2023-03-26T01:39:41.335Z,6.90
2023-03-26T01:42:14.222Z,6.95
2023-03-26T01:45:28.295Z,7.00
2023-03-26T01:47:55.069Z,7.01
2023-03-26T01:50:21.712Z,7.02
2023-03-26T01:52:48.163Z,7.02
2023-03-26T01:55:14.713Z,6.99
2023-03-26T01:57:50.173Z,6.97
2023-03-26T02:00:16.637Z,6.96
2023-03-26T02:02:56.632Z,6.96
2023-03-26T02:05:29.359Z,6.93
2023-03-26T02:08:02.903Z,6.87
2023-03-26T02:10:34.076Z,6.83
2023-03-26T02:13:01.344Z,6.81
2023-03-26T02:15:27.902Z,6.80
2023-03-26T02:17:54.520Z,6.81
2023-03-26T02:20:21.647Z,6.80
2023-03-26T02:22:48.485Z,6.78
2023-03-26T02:25:19.724Z,6.74
2023-03-26T02:27:49.469Z,6.75
2023-03-26T02:30:25.969Z,6.73
2023-03-26T02:32:59.112Z,6.74
2023-03-26T02:35:29.572Z,6.79
2023-03-26T02:37:59.237Z,6.82
2023-03-26T02:40:26.131Z,6.87
2023-03-26T02:42:52.991Z,6.92
2023-03-26T02:45:19.697Z,6.94
2023-03-26T02:48:12.436Z,6.97
2023-03-26T02:51:02.796Z,7.00
2023-03-26T02:53:37.514Z,7.02
2023-03-26T02:56:30.157Z,7.05
2023-03-26T02:59:09.128Z,7.06
2023-03-26T03:01:36.924Z,7.06
2023-03-26T03:04:04.293Z,7.10
2023-03-26T03:06:35.057Z,7.12
2023-03-26T03:09:02.729Z,7.13
2023-03-26T03:11:35.924Z,7.17
2023-03-26T03:14:02.790Z,7.17
2023-03-26T03:16:31.269Z,7.18
2023-03-26T03:19:02.904Z,7.20
2023-03-26T03:21:36.986Z,7.19
2023-03-26T03:24:03.586Z,7.23
2023-03-26T03:26:34.298Z,7.27
2023-03-26T03:29:12.955Z,7.29
2023-03-26T03:31:41.152Z,7.30
2023-03-26T03:34:16.859Z,7.32
2023-03-26T03:36:49.981Z,7.33
2023-03-26T03:39:28.372Z,7.38
2023-03-26T03:41:54.952Z,7.40
2023-03-26T03:44:21.644Z,7.41
2023-03-26T03:46:49.277Z,7.44
2023-03-26T03:49:15.906Z,7.47
2023-03-26T03:51:42.736Z,7.48
2023-03-26T03:54:18.979Z,7.49
2023-03-26T03:56:47.220Z,7.50
2023-03-26T03:59:32.644Z,7.51
2023-03-26T04:01:59.806Z,7.52
2023-03-26T04:04:42.009Z,7.53
2023-03-26T04:07:11.720Z,7.53
2023-03-26T04:10:03.023Z,7.55
2023-03-26T04:12:49.270Z,7.55
2023-03-26T04:15:17.363Z,7.56
2023-03-26T04:17:45.421Z,7.56
2023-03-26T04:20:15.570Z,7.56
2023-03-26T04:22:44.170Z,7.57
2023-03-26T04:25:13.265Z,7.58
2023-03-26T04:27:58.435Z,7.56
2023-03-26T04:30:45.266Z,7.56
2023-03-26T04:33:32.541Z,7.55
2023-03-26T04:36:02.637Z,7.56
2023-03-26T04:38:43.781Z,7.55
2023-03-26T04:41:13.053Z,7.56
2023-03-26T04:44:02.544Z,7.55
2023-03-26T04:46:43.541Z,7.55
2023-03-26T04:49:17.047Z,7.55
2023-03-26T04:51:46.101Z,7.54
2023-03-26T04:54:32.452Z,7.54
2023-03-26T04:57:08.848Z,7.55
2023-03-26T04:59:54.939Z,7.54
2023-03-26T05:02:21.355Z,7.56
2023-03-26T05:04:51.727Z,7.55
2023-03-26T05:07:23.720Z,7.54
2023-03-26T05:09:53.599Z,7.55
2023-03-26T05:12:38.339Z,7.54
2023-03-26T05:15:10.823Z,7.56
2023-03-26T05:18:03.630Z,7.56
2023-03-26T05:20:43.364Z,7.57
2023-03-26T05:23:10.707Z,7.57
2023-03-26T05:25:41.142Z,7.58
2023-03-26T05:28:14.993Z,7.60
2023-03-26T05:30:53.186Z,7.60
2023-03-26T05:33:22.304Z,7.61
2023-03-26T05:36:02.960Z,7.61
2023-03-26T05:38:31.812Z,7.62
2023-03-26T05:41:04.470Z,7.61
2023-03-26T05:43:31.776Z,7.61
2023-03-26T05:46:20.317Z,7.62
2023-03-26T05:48:47.215Z,7.62
2023-03-26T05:51:15.698Z,7.64
2023-03-26T05:53:49.380Z,7.65
2023-03-26T05:56:51.239Z,7.65
2023-03-26T05:59:36.641Z,7.66
2023-03-26T06:02:21.819Z,7.68
2023-03-26T06:05:09.799Z,7.67
2023-03-26T06:07:52.421Z,7.71
2023-03-26T06:10:19.589Z,7.73
2023-03-26T06:12:46.240Z,7.77
2023-03-26T06:15:12.942Z,7.81
2023-03-26T06:17:58.041Z,7.85
2023-03-26T06:20:46.916Z,7.87
2023-03-26T06:23:31.047Z,7.91
2023-03-26T06:26:29.437Z,7.91
2023-03-26T06:29:16.035Z,7.92
2023-03-26T06:32:19.774Z,7.97
2023-03-26T06:34:53.259Z,7.99
2023-03-26T06:37:19.965Z,8.02
2023-03-26T06:39:47.757Z,8.04
2023-03-26T06:42:16.774Z,8.04
2023-03-26T06:45:01.782Z,8.09
2023-03-26T06:47:34.052Z,8.11
2023-03-26T06:50:19.307Z,8.15
2023-03-26T06:53:04.929Z,8.13
2023-03-26T06:55:53.558Z,8.11
2023-03-26T06:58:55.298Z,8.16
2023-03-26T07:01:31.109Z,8.17
2023-03-26T07:04:15.984Z,8.17
2023-03-26T07:07:11.612Z,8.20
2023-03-26T07:10:10.603Z,8.20
2023-03-26T07:12:47.763Z,8.21
2023-03-26T07:15:32.851Z,8.20
2023-03-26T07:18:18.239Z,8.20
2023-03-26T07:20:46.430Z,8.24
2023-03-26T07:23:15.574Z,8.24
2023-03-26T07:25:51.963Z,8.27
2023-03-26T07:29:04.779Z,8.30
2023-03-26T07:32:32.807Z,8.34
2023-03-26T07:35:28.545Z,8.35
2023-03-26T07:38:44.260Z,8.36
2023-03-26T07:41:42.942Z,8.40
2023-03-26T07:44:47.536Z,8.40
2023-03-26T07:47:34.827Z,8.38
2023-03-26T07:50:19.215Z,8.41
2023-03-26T07:53:04.482Z,8.42
2023-03-26T07:55:53.673Z,8.41
2023-03-26T07:59:05.274Z,8.41
2023-03-26T08:01:52.114Z,8.48
2023-03-26T08:05:10.376Z,8.52
2023-03-26T08:08:18.102Z,8.59
2023-03-26T08:11:22.863Z,8.63
2023-03-26T08:14:08.687Z,8.64
2023-03-26T08:16:53.292Z,8.59
2023-03-26T08:19:45.986Z,8.53
2023-03-26T08:22:56.684Z,8.53
2023-03-26T08:25:33.043Z,8.48
2023-03-26T08:28:14.021Z,8.49
2023-03-26T08:30:40.422Z,8.50
2023-03-26T08:33:16.652Z,8.49
2023-03-26T08:35:44.058Z,8.50
2023-03-26T08:38:34.460Z,8.44
2023-03-26T08:41:28.724Z,8.40
2023-03-26T08:44:47.624Z,8.36
2023-03-26T08:47:22.921Z,8.35
2023-03-26T08:50:26.812Z,8.27
2023-03-26T08:53:24.437Z,8.19
2023-03-26T08:56:01.488Z,8.16
2023-03-26T08:59:22.298Z,8.13
2023-03-26T09:02:22.914Z,8.11
2023-03-26T09:05:08.177Z,8.11
2023-03-26T09:07:47.080Z,8.11
2023-03-26T09:10:28.130Z,8.06
2023-03-26T09:12:54.540Z,8.00
2023-03-26T09:15:54.781Z,8.00
2023-03-26T09:18:47.280Z,8.01
2023-03-26T09:21:34.007Z,7.99
2023-03-26T09:24:27.424Z,7.99
2023-03-26T09:27:33.397Z,8.07
2023-03-26T09:30:44.455Z,8.08
2023-03-26T09:33:22.425Z,8.09
2023-03-26T09:36:07.410Z,8.12
2023-03-26T09:38:43.826Z,8.17
2023-03-26T09:41:18.243Z,8.21
2023-03-26T09:44:10.462Z,8.20
2023-03-26T09:46:39.871Z,8.17
2023-03-26T09:49:43.768Z,8.17
2023-03-26T09:52:41.461Z,8.17
2023-03-26T09:55:28.475Z,8.14
2023-03-26T09:58:01.163Z,8.08
2023-03-26T10:00:49.417Z,8.07
2023-03-26T10:03:57.916Z,8.08
2023-03-26T10:06:48.714Z,8.02
2023-03-26T10:09:29.657Z,8.05
2023-03-26T10:12:09.652Z,8.01
2023-03-26T10:14:57.313Z,8.02
2023-03-26T10:17:55.651Z,8.08
2023-03-26T10:20:41.393Z,8.11
2023-03-26T10:23:23.286Z,8.17
2023-03-26T10:26:03.146Z,8.27
2023-03-26T10:29:02.250Z,8.21
2023-03-26T10:31:51.321Z,8.16
2023-03-26T10:34:46.421Z,8.11
2023-03-26T10:37:32.470Z,8.09
2023-03-26T10:40:21.083Z,8.08
2023-03-26T10:43:19.694Z,8.05
2023-03-26T10:46:18.180Z,8.04
2023-03-26T10:49:03.477Z,8.02
2023-03-26T10:51:53.453Z,8.09
2023-03-26T10:54:31.198Z,8.03
2023-03-26T10:57:00.597Z,7.91
2023-03-26T10:59:27.513Z,7.78
2023-03-26T11:02:29.079Z,7.73
2023-03-26T11:05:22.169Z,7.82
2023-03-26T11:07:57.272Z,7.86
2023-03-26T11:10:41.211Z,7.96
2023-03-26T11:13:43.132Z,8.00
2023-03-26T11:16:29.086Z,7.97
2023-03-26T11:19:16.468Z,7.99
2023-03-26T11:22:07.757Z,7.97
2023-03-26T11:25:05.467Z,8.06
2023-03-26T11:27:50.589Z,8.22
2023-03-26T11:30:32.418Z,8.41
2023-03-26T11:33:03.452Z,8.37
2023-03-26T11:35:40.858Z,8.44
2023-03-26T11:38:37.234Z,8.38
2023-03-26T11:41:11.765Z,8.35
2023-03-26T11:44:13.094Z,8.15
2023-03-26T11:46:43.704Z,8.03
2023-03-26T11:49:14.682Z,7.94
2023-03-26T11:51:43.099Z,7.82
2023-03-26T11:54:12.488Z,7.78
2023-03-26T11:57:05.914Z,7.73
2023-03-26T11:59:56.685Z,7.77
2023-03-26T12:02:38.720Z,7.91
2023-03-26T12:05:20.290Z,8.06
2023-03-26T12:07:53.546Z,8.06
2023-03-26T12:10:34.929Z,8.10
2023-03-26T12:13:19.101Z,8.17
2023-03-26T12:15:45.785Z,8.19
2023-03-26T12:18:27.415Z,8.21
2023-03-26T12:21:10.074Z,8.35
2023-03-26T12:23:43.467Z,8.40
2023-03-26T12:26:19.145Z,8.55
2023-03-26T12:28:50.186Z,8.78
2023-03-26T12:31:19.067Z,9.00
2023-03-26T12:34:07.666Z,9.10
2023-03-26T12:36:35.661Z,9.11
2023-03-26T12:40:08.661Z,9.00
2023-03-26T12:44:47.003Z,8.92
2023-03-26T12:45:22.743Z,8.94
2023-03-26T12:47:59.882Z,8.93
2023-03-26T12:50:57.062Z,8.95
2023-03-26T12:53:46.171Z,9.05
2023-03-26T12:56:43.141Z,9.03
2023-03-26T12:59:28.744Z,9.06
2023-03-26T13:02:07.058Z,9.08
2023-03-26T13:05:04.358Z,9.21
2023-03-26T13:07:50.754Z,9.32
2023-03-26T13:10:31.443Z,9.48
2023-03-26T13:13:11.468Z,9.60
2023-03-26T13:16:07.652Z,9.62
2023-03-26T13:18:53.161Z,9.63
2023-03-26T13:21:26.601Z,9.68
2023-03-26T13:24:06.178Z,9.68
2023-03-26T13:27:00.275Z,9.48
2023-03-26T13:29:56.290Z,9.34
2023-03-26T13:32:46.356Z,9.40
2023-03-26T13:35:27.305Z,9.33
2023-03-26T13:38:26.306Z,9.36
2023-03-26T13:41:11.239Z,9.47
2023-03-26T13:44:04.083Z,9.57
2023-03-26T13:46:42.591Z,9.62
2023-03-26T13:49:19.681Z,9.78
2023-03-26T13:52:00.701Z,9.73
2023-03-26T13:54:31.175Z,9.81
2023-03-26T13:57:19.009Z,9.80
2023-03-26T13:59:55.608Z,9.79
2023-03-26T14:02:48.578Z,9.72
2023-03-26T14:05:26.391Z,9.63
2023-03-26T14:08:00.218Z,9.58
2023-03-26T14:10:30.998Z,9.55
2023-03-26T14:13:07.326Z,9.58
2023-03-26T14:15:45.825Z,9.41
2023-03-26T14:18:21.376Z,9.33
2023-03-26T14:21:28.605Z,9.20
2023-03-26T14:24:23.028Z,9.19
2023-03-26T14:26:58.246Z,9.20
2023-03-26T14:29:35.591Z,9.21
2023-03-26T14:32:24.136Z,9.13
2023-03-26T14:35:15.535Z,9.16
2023-03-26T14:38:07.135Z,9.14
2023-03-26T14:40:33.494Z,8.91
2023-03-26T14:43:19.617Z,8.90
2023-03-26T14:45:52.174Z,8.92
2023-03-26T14:49:02.781Z,8.92
2023-03-26T14:52:06.021Z,8.93
2023-03-26T14:54:36.923Z,8.79
2023-03-26T14:57:28.220Z,8.71
2023-03-26T15:00:25.268Z,8.63
2023-03-26T15:03:10.102Z,8.67
2023-03-26T15:05:45.767Z,8.70
2023-03-26T15:08:37.557Z,8.67
2023-03-26T15:11:41.404Z,8.53
2023-03-26T15:14:31.585Z,8.50
2023-03-26T15:17:19.452Z,8.48
2023-03-26T15:20:31.678Z,8.56
2023-03-26T15:23:17.524Z,8.64
2023-03-26T15:25:56.033Z,8.63
2023-03-26T15:28:56.458Z,8.75
2023-03-26T15:31:47.574Z,8.84
2023-03-26T15:34:34.934Z,8.78
2023-03-26T15:37:34.360Z,8.81
2023-03-26T15:40:09.874Z,8.71
2023-03-26T15:43:01.459Z,8.65
2023-03-26T15:45:27.944Z,8.60
2023-03-26T15:48:34.185Z,8.50
2023-03-26T15:51:09.794Z,8.38
2023-03-26T15:53:48.621Z,8.32
2023-03-26T15:56:43.960Z,8.26
2023-03-26T15:59:37.418Z,8.18
2023-03-26T16:02:07.443Z,8.12
2023-03-26T16:04:51.993Z,8.12
2023-03-26T16:07:26.214Z,8.11
2023-03-26T16:10:16.090Z,8.08
2023-03-26T16:13:06.317Z,7.94
2023-03-26T16:15:33.259Z,7.86
2023-03-26T16:18:12.204Z,7.89
2023-03-26T16:20:54.555Z,7.82
2023-03-26T16:23:47.722Z,7.80
2023-03-26T16:26:41.041Z,7.78
2023-03-26T16:29:29.830Z,7.75
2023-03-26T16:32:05.213Z,7.70
2023-03-26T16:34:54.875Z,7.67
2023-03-26T16:37:35.911Z,7.65
2023-03-26T16:40:17.854Z,7.60
2023-03-26T16:43:11.732Z,7.58
2023-03-26T16:45:50.566Z,7.53
2023-03-26T16:48:30.400Z,7.53
2023-03-26T16:51:22.935Z,7.54
2023-03-26T16:54:12.188Z,7.52
2023-03-26T16:56:47.530Z,7.49
2023-03-26T16:59:26.621Z,7.46
2023-03-26T17:02:06.808Z,7.40
2023-03-26T17:04:35.503Z,7.34
2023-03-26T17:07:21.714Z,7.25
2023-03-26T17:09:51.820Z,7.20
2023-03-26T17:12:30.210Z,7.17
2023-03-26T17:15:21.497Z,7.08
2023-03-26T17:18:03.461Z,6.98
2023-03-26T17:20:40.556Z,6.88
2023-03-26T17:23:40.424Z,6.79
2023-03-26T17:26:42.857Z,6.79
2023-03-26T17:29:28.898Z,6.78
2023-03-26T17:32:08.404Z,6.76
2023-03-26T17:34:55.782Z,6.75
2023-03-26T17:37:22.152Z,6.71
2023-03-26T17:39:57.862Z,6.68
2023-03-26T17:42:38.206Z,6.67
2023-03-26T17:45:17.451Z,6.66
2023-03-26T17:47:48.268Z,6.64
2023-03-26T17:50:22.603Z,6.56
2023-03-26T17:53:31.564Z,6.50
2023-03-26T17:56:03.772Z,6.43
2023-03-26T17:58:35.966Z,6.40
2023-03-26T18:01:05.471Z,6.41
2023-03-26T18:03:49.668Z,6.39
2023-03-26T18:06:57.677Z,6.33
2023-03-26T18:09:58.477Z,6.18
2023-03-26T18:12:37.756Z,5.99
2023-03-26T18:15:30.165Z,5.88
2023-03-26T18:18:11.732Z,5.79
2023-03-26T18:20:38.409Z,5.74
2023-03-26T18:23:10.673Z,5.77
2023-03-26T18:25:37.771Z,5.83
2023-03-26T18:28:05.560Z,5.87
2023-03-26T18:30:32.236Z,5.91
2023-03-26T18:33:13.576Z,5.94
2023-03-26T18:35:46.315Z,5.97
2023-03-26T18:38:37.751Z,6.00
2023-03-26T18:41:07.824Z,6.01
2023-03-26T18:43:44.159Z,6.00
2023-03-26T18:46:13.932Z,6.01
2023-03-26T18:48:40.719Z,6.00
2023-03-26T18:51:07.871Z,6.00
2023-03-26T18:53:48.284Z,5.99
2023-03-26T18:56:29.846Z,5.92
2023-03-26T18:59:03.189Z,5.84
2023-03-26T19:01:32.185Z,5.72
2023-03-26T19:04:05.982Z,5.59
2023-03-26T19:06:36.084Z,5.50
2023-03-26T19:09:23.825Z,5.43
2023-03-26T19:11:57.335Z,5.39
2023-03-26T19:14:26.390Z,5.33
2023-03-26T19:16:58.758Z,5.37
2023-03-26T19:19:32.421Z,5.40
2023-03-26T19:21:59.818Z,5.46
2023-03-26T19:24:27.036Z,5.48
2023-03-26T19:26:53.956Z,5.53
2023-03-26T19:29:27.246Z,5.51
2023-03-26T19:32:15.903Z,5.45
2023-03-26T19:34:45.003Z,5.34
2023-03-26T19:37:30.683Z,5.21
2023-03-26T19:40:14.658Z,5.19
2023-03-26T19:42:44.752Z,5.11
2023-03-26T19:45:19.133Z,5.04
2023-03-26T19:47:50.141Z,5.02
2023-03-26T19:50:30.180Z,5.00
2023-03-26T19:53:16.238Z,4.99
2023-03-26T19:55:52.409Z,4.95
2023-03-26T19:58:19.714Z,4.92
2023-03-26T20:00:46.235Z,4.89
2023-03-26T20:03:13.238Z,4.87
2023-03-26T20:05:39.853Z,4.87
2023-03-26T20:08:14.290Z,4.87
2023-03-26T20:10:42.433Z,4.90
2023-03-26T20:13:15.890Z,4.90
2023-03-26T20:15:47.092Z,4.88
2023-03-26T20:18:13.693Z,4.91
2023-03-26T20:20:41.306Z,4.89
2023-03-26T20:23:17.617Z,4.92
2023-03-26T20:25:52.739Z,4.95
2023-03-26T20:28:19.268Z,4.94
2023-03-26T20:30:50.078Z,4.93
2023-03-26T20:33:25.364Z,4.90
2023-03-26T20:35:53.722Z,4.91
2023-03-26T20:38:24.011Z,4.88
2023-03-26T20:40:56.294Z,4.88
2023-03-26T20:43:25.071Z,4.84
2023-03-26T20:45:51.999Z,4.80
2023-03-26T20:48:18.632Z,4.77
2023-03-26T20:50:50.650Z,4.69
2023-03-26T20:53:18.823Z,4.66
2023-03-26T20:55:46.592Z,4.61
2023-03-26T20:58:14.980Z,4.55
2023-03-26T21:00:44.519Z,4.48
2023-03-26T21:03:17.001Z,4.44
2023-03-26T21:05:44.979Z,4.38
2023-03-26T21:08:18.097Z,4.33
2023-03-26T21:10:47.702Z,4.27
2023-03-26T21:13:32.294Z,4.24
2023-03-26T21:16:00.926Z,4.12
2023-03-26T21:18:28.567Z,4.04
2023-03-26T21:21:18.199Z,3.97
2023-03-26T21:24:37.263Z,3.89
2023-03-26T21:27:12.795Z,3.81
2023-03-26T21:29:39.529Z,3.77
2023-03-26T21:32:06.366Z,3.69
2023-03-26T21:34:33.561Z,3.66
2023-03-26T21:37:01.583Z,3.61
2023-03-26T21:39:29.823Z,3.56
2023-03-26T21:42:05.026Z,3.53
2023-03-26T21:44:33.422Z,3.48
2023-03-26T21:47:00.568Z,3.42
2023-03-26T21:49:27.539Z,3.39
2023-03-26T21:51:54.248Z,3.37
2023-03-26T21:54:26.911Z,3.37
2023-03-26T21:57:12.550Z,3.41
2023-03-26T22:00:15.191Z,3.47
2023-03-26T22:03:16.055Z,3.54
2023-03-26T22:06:10.535Z,3.62
2023-03-26T22:08:41.363Z,3.72
2023-03-26T22:11:11.212Z,3.83
2023-03-26T22:13:39.092Z,3.92
2023-03-26T22:16:07.645Z,3.98
2023-03-26T22:18:34.670Z,4.03
2023-03-26T22:21:01.803Z,4.11
2023-03-26T22:23:36.205Z,4.19
2023-03-26T22:26:03.929Z,4.22
2023-03-26T22:28:30.861Z,4.25
2023-03-26T22:30:58.197Z,4.29
2023-03-26T22:33:24.897Z,4.28
2023-03-26T22:35:52.188Z,4.25
2023-03-26T22:38:19.090Z,4.18
2023-03-26T22:40:45.516Z,4.11
2023-03-26T22:43:12.238Z,4.01
2023-03-26T22:45:38.701Z,3.94
2023-03-26T22:48:05.301Z,3.86
2023-03-26T22:50:32.538Z,3.80
2023-03-26T22:52:59.295Z,3.76
2023-03-26T22:55:28.379Z,3.67
2023-03-26T22:57:55.807Z,3.62
2023-03-26T23:00:22.403Z,3.54
2023-03-26T23:02:49.049Z,3.47
2023-03-26T23:05:17.590Z,3.41
2023-03-26T23:07:45.945Z,3.37
2023-03-26T23:10:13.507Z,3.35
2023-03-26T23:12:40.301Z,3.39
2023-03-26T23:15:07.742Z,3.46
2023-03-26T23:17:36.046Z,3.51
2023-03-26T23:20:06.035Z,3.56
2023-03-26T23:22:32.598Z,3.56
2023-03-26T23:24:59.080Z,3.55
2023-03-26T23:27:25.576Z,3.51
2023-03-26T23:29:51.975Z,3.52
2023-03-26T23:32:23.409Z,3.57
2023-03-26T23:34:51.569Z,3.65
2023-03-26T23:37:23.094Z,3.68
2023-03-26T23:39:50.908Z,3.73
2023-03-26T23:42:17.984Z,3.75
2023-03-26T23:44:56.512Z,3.69
2023-03-26T23:47:23.048Z,3.64
2023-03-26T23:49:49.860Z,3.59
2023-03-26T23:52:16.616Z,3.62
2023-03-26T23:54:43.096Z,3.62
2023-03-26T23:57:10.460Z,3.59
2023-03-26T23:59:36.969Z,3.60
